sensor_id;sensor_type;location;lat;lon;timestamp;P1;durP1;ratioP1;P2;durP2;ratioP2
21281;SDS011;10800;53.096;18.328;2023-06-10T00:01:34;6.50;;;3.20;;
21281;SDS011;10800;53.096;18.328;2023-06-10T00:06:40;10.23;;;2.90;;
21281;SDS011;10800;53.096;18.328;2023-06-10T00:11:47;5.63;;;2.60;;
21281;SDS011;10800;53.096;18.328;2023-06-10T00:16:53;8.23;;;3.73;;
21281;SDS011;10800;53.096;18.328;2023-06-10T00:21:59;8.33;;;3.30;;
21281;SDS011;10800;53.096;18.328;2023-06-10T00:27:05;5.30;;;2.43;;
21281;SDS011;10800;53.096;18.328;2023-06-10T00:32:11;7.67;;;2.90;;
21281;SDS011;10800;53.096;18.328;2023-06-10T00:37:16;5.37;;;3.50;;
21281;SDS011;10800;53.096;18.328;2023-06-10T00:42:22;7.30;;;3.70;;
21281;SDS011;10800;53.096;18.328;2023-06-10T00:47:28;8.67;;;3.60;;
21281;SDS011;10800;53.096;18.328;2023-06-10T00:52:34;4.33;;;2.67;;
21281;SDS011;10800;53.096;18.328;2023-06-10T00:57:40;11.47;;;3.40;;
21281;SDS011;10800;53.096;18.328;2023-06-10T01:02:47;4.83;;;2.60;;
21281;SDS011;10800;53.096;18.328;2023-06-10T01:13:09;3.23;;;2.80;;
21281;SDS011;10800;53.096;18.328;2023-06-10T01:18:15;5.47;;;2.73;;
21281;SDS011;10800;53.096;18.328;2023-06-10T01:23:22;5.57;;;3.13;;
21281;SDS011;10800;53.096;18.328;2023-06-10T01:28:38;6.83;;;3.10;;
21281;SDS011;10800;53.096;18.328;2023-06-10T01:33:55;8.40;;;3.13;;
21281;SDS011;10800;53.096;18.328;2023-06-10T01:39:04;8.60;;;2.80;;
21281;SDS011;10800;53.096;18.328;2023-06-10T01:44:11;6.03;;;2.70;;
21281;SDS011;10800;53.096;18.328;2023-06-10T01:49:19;5.37;;;3.23;;
21281;SDS011;10800;53.096;18.328;2023-06-10T01:54:26;6.73;;;2.77;;
21281;SDS011;10800;53.096;18.328;2023-06-10T01:59:31;5.63;;;2.87;;
21281;SDS011;10800;53.096;18.328;2023-06-10T02:04:37;7.23;;;2.90;;
21281;SDS011;10800;53.096;18.328;2023-06-10T02:09:42;6.27;;;2.90;;
21281;SDS011;10800;53.096;18.328;2023-06-10T02:14:48;3.50;;;2.40;;
21281;SDS011;10800;53.096;18.328;2023-06-10T02:19:54;9.07;;;2.57;;
21281;SDS011;10800;53.096;18.328;2023-06-10T02:25:00;5.27;;;2.87;;
21281;SDS011;10800;53.096;18.328;2023-06-10T02:30:07;4.73;;;2.47;;
21281;SDS011;10800;53.096;18.328;2023-06-10T02:35:14;6.43;;;3.57;;
21281;SDS011;10800;53.096;18.328;2023-06-10T02:40:21;4.67;;;2.67;;
21281;SDS011;10800;53.096;18.328;2023-06-10T02:45:26;8.30;;;3.17;;
21281;SDS011;10800;53.096;18.328;2023-06-10T02:50:32;6.17;;;2.97;;
21281;SDS011;10800;53.096;18.328;2023-06-10T02:55:37;11.03;;;2.73;;
21281;SDS011;10800;53.096;18.328;2023-06-10T03:00:44;5.90;;;2.93;;
21281;SDS011;10800;53.096;18.328;2023-06-10T03:05:50;3.43;;;2.43;;
21281;SDS011;10800;53.096;18.328;2023-06-10T03:10:56;14.93;;;2.70;;
21281;SDS011;10800;53.096;18.328;2023-06-10T03:16:01;4.87;;;2.70;;
21281;SDS011;10800;53.096;18.328;2023-06-10T03:21:08;6.53;;;2.53;;
21281;SDS011;10800;53.096;18.328;2023-06-10T03:26:14;5.87;;;2.87;;
21281;SDS011;10800;53.096;18.328;2023-06-10T03:31:20;6.80;;;2.70;;
21281;SDS011;10800;53.096;18.328;2023-06-10T03:36:25;5.50;;;2.70;;
21281;SDS011;10800;53.096;18.328;2023-06-10T03:41:32;4.97;;;2.60;;
21281;SDS011;10800;53.096;18.328;2023-06-10T03:46:38;5.77;;;2.63;;
21281;SDS011;10800;53.096;18.328;2023-06-10T03:51:44;8.33;;;2.70;;
21281;SDS011;10800;53.096;18.328;2023-06-10T03:56:53;5.77;;;2.37;;
21281;SDS011;10800;53.096;18.328;2023-06-10T04:01:58;3.20;;;2.43;;
21281;SDS011;10800;53.096;18.328;2023-06-10T04:07:05;7.57;;;2.30;;
21281;SDS011;10800;53.096;18.328;2023-06-10T04:12:11;3.83;;;2.40;;
21281;SDS011;10800;53.096;18.328;2023-06-10T04:17:18;12.73;;;2.47;;
21281;SDS011;10800;53.096;18.328;2023-06-10T04:22:23;4.93;;;2.67;;
21281;SDS011;10800;53.096;18.328;2023-06-10T04:27:29;6.03;;;3.20;;
21281;SDS011;10800;53.096;18.328;2023-06-10T04:32:35;12.10;;;2.80;;
21281;SDS011;10800;53.096;18.328;2023-06-10T04:37:40;10.00;;;2.77;;
21281;SDS011;10800;53.096;18.328;2023-06-10T04:42:46;3.20;;;2.53;;
21281;SDS011;10800;53.096;18.328;2023-06-10T04:47:51;8.90;;;2.40;;
21281;SDS011;10800;53.096;18.328;2023-06-10T04:52:59;5.10;;;2.40;;
21281;SDS011;10800;53.096;18.328;2023-06-10T04:58:04;6.50;;;2.73;;
21281;SDS011;10800;53.096;18.328;2023-06-10T05:03:10;6.00;;;2.47;;
21281;SDS011;10800;53.096;18.328;2023-06-10T05:08:16;4.67;;;2.30;;
21281;SDS011;10800;53.096;18.328;2023-06-10T05:13:21;7.83;;;2.90;;
21281;SDS011;10800;53.096;18.328;2023-06-10T05:18:27;3.60;;;2.37;;
21281;SDS011;10800;53.096;18.328;2023-06-10T05:23:33;2.80;;;1.83;;
21281;SDS011;10800;53.096;18.328;2023-06-10T05:33:50;11.13;;;3.30;;
21281;SDS011;10800;53.096;18.328;2023-06-10T05:38:56;3.37;;;1.80;;
21281;SDS011;10800;53.096;18.328;2023-06-10T05:44:02;5.08;;;2.67;;
21281;SDS011;10800;53.096;18.328;2023-06-10T05:49:08;5.27;;;2.43;;
21281;SDS011;10800;53.096;18.328;2023-06-10T05:54:14;3.15;;;1.82;;
21281;SDS011;10800;53.096;18.328;2023-06-10T05:59:19;5.45;;;1.52;;
21281;SDS011;10800;53.096;18.328;2023-06-10T06:04:26;4.75;;;2.17;;
21281;SDS011;10800;53.096;18.328;2023-06-10T06:09:33;2.52;;;1.95;;
21281;SDS011;10800;53.096;18.328;2023-06-10T06:14:38;4.08;;;2.05;;
21281;SDS011;10800;53.096;18.328;2023-06-10T06:19:44;4.37;;;2.02;;
21281;SDS011;10800;53.096;18.328;2023-06-10T06:24:51;2.05;;;1.80;;
21281;SDS011;10800;53.096;18.328;2023-06-10T06:29:57;2.00;;;1.50;;
21281;SDS011;10800;53.096;18.328;2023-06-10T06:35:04;4.05;;;1.87;;
21281;SDS011;10800;53.096;18.328;2023-06-10T06:40:12;2.17;;;1.60;;
21281;SDS011;10800;53.096;18.328;2023-06-10T06:45:20;3.17;;;1.82;;
21281;SDS011;10800;53.096;18.328;2023-06-10T06:50:26;5.25;;;2.25;;
21281;SDS011;10800;53.096;18.328;2023-06-10T06:55:33;3.27;;;1.70;;
21281;SDS011;10800;53.096;18.328;2023-06-10T07:00:38;4.60;;;1.87;;
21281;SDS011;10800;53.096;18.328;2023-06-10T07:05:44;2.98;;;2.00;;
21281;SDS011;10800;53.096;18.328;2023-06-10T07:10:50;4.78;;;1.45;;
21281;SDS011;10800;53.096;18.328;2023-06-10T07:15:56;5.45;;;2.15;;
21281;SDS011;10800;53.096;18.328;2023-06-10T07:21:02;4.62;;;2.75;;
21281;SDS011;10800;53.096;18.328;2023-06-10T07:26:08;3.30;;;2.00;;
21281;SDS011;10800;53.096;18.328;2023-06-10T07:31:17;3.90;;;2.17;;
21281;SDS011;10800;53.096;18.328;2023-06-10T07:36:23;4.60;;;2.05;;
21281;SDS011;10800;53.096;18.328;2023-06-10T07:46:41;3.42;;;1.95;;
21281;SDS011;10800;53.096;18.328;2023-06-10T07:51:47;6.42;;;2.30;;
21281;SDS011;10800;53.096;18.328;2023-06-10T07:56:53;2.77;;;1.75;;
21281;SDS011;10800;53.096;18.328;2023-06-10T08:01:59;4.05;;;1.98;;
21281;SDS011;10800;53.096;18.328;2023-06-10T08:07:05;2.60;;;1.95;;
21281;SDS011;10800;53.096;18.328;2023-06-10T08:12:11;4.58;;;1.50;;
21281;SDS011;10800;53.096;18.328;2023-06-10T08:17:16;2.45;;;1.72;;
21281;SDS011;10800;53.096;18.328;2023-06-10T08:22:22;4.87;;;2.00;;
21281;SDS011;10800;53.096;18.328;2023-06-10T08:27:28;2.62;;;1.67;;
21281;SDS011;10800;53.096;18.328;2023-06-10T08:32:36;13.48;;;2.55;;
21281;SDS011;10800;53.096;18.328;2023-06-10T08:37:58;4.45;;;1.85;;
21281;SDS011;10800;53.096;18.328;2023-06-10T08:43:22;6.53;;;2.12;;
21281;SDS011;10800;53.096;18.328;2023-06-10T08:48:32;6.65;;;1.92;;
21281;SDS011;10800;53.096;18.328;2023-06-10T08:53:44;3.98;;;2.12;;
21281;SDS011;10800;53.096;18.328;2023-06-10T08:58:52;5.92;;;2.00;;
21281;SDS011;10800;53.096;18.328;2023-06-10T14:20:28;6.80;;;2.35;;
21281;SDS011;10800;53.096;18.328;2023-06-10T14:25:35;4.67;;;1.55;;
21281;SDS011;10800;53.096;18.328;2023-06-10T14:30:40;2.35;;;1.20;;
21281;SDS011;10800;53.096;18.328;2023-06-10T14:35:46;4.12;;;1.35;;
21281;SDS011;10800;53.096;18.328;2023-06-10T14:40:51;3.50;;;1.07;;
21281;SDS011;10800;53.096;18.328;2023-06-10T14:45:56;2.33;;;1.22;;
21281;SDS011;10800;53.096;18.328;2023-06-10T14:51:02;4.70;;;2.92;;
21281;SDS011;10800;53.096;18.328;2023-06-10T14:56:09;4.05;;;1.42;;
21281;SDS011;10800;53.096;18.328;2023-06-10T15:01:14;1.67;;;1.25;;
21281;SDS011;10800;53.096;18.328;2023-06-10T15:06:19;1.45;;;1.35;;
21281;SDS011;10800;53.096;18.328;2023-06-10T15:11:26;5.25;;;1.57;;
21281;SDS011;10800;53.096;18.328;2023-06-10T15:16:32;0.95;;;0.70;;
21281;SDS011;10800;53.096;18.328;2023-06-10T15:21:37;3.45;;;1.10;;
21281;SDS011;10800;53.096;18.328;2023-06-10T15:26:43;5.65;;;1.40;;
21281;SDS011;10800;53.096;18.328;2023-06-10T15:31:48;1.72;;;1.00;;
21281;SDS011;10800;53.096;18.328;2023-06-10T15:36:55;1.20;;;1.10;;
21281;SDS011;10800;53.096;18.328;2023-06-10T15:42:00;3.35;;;1.30;;
21281;SDS011;10800;53.096;18.328;2023-06-10T15:47:06;1.20;;;1.10;;
21281;SDS011;10800;53.096;18.328;2023-06-10T15:52:12;3.77;;;1.30;;
21281;SDS011;10800;53.096;18.328;2023-06-10T15:57:17;4.37;;;1.05;;
21281;SDS011;10800;53.096;18.328;2023-06-10T16:02:25;4.85;;;1.17;;
21281;SDS011;10800;53.096;18.328;2023-06-10T16:07:30;3.12;;;0.93;;
21281;SDS011;10800;53.096;18.328;2023-06-10T16:12:35;2.58;;;1.10;;
21281;SDS011;10800;53.096;18.328;2023-06-10T16:17:43;10.30;;;1.67;;
21281;SDS011;10800;53.096;18.328;2023-06-10T16:22:50;3.00;;;1.27;;
21281;SDS011;10800;53.096;18.328;2023-06-10T16:27:58;4.17;;;0.90;;
21281;SDS011;10800;53.096;18.328;2023-06-10T16:33:05;3.08;;;1.05;;
21281;SDS011;10800;53.096;18.328;2023-06-10T16:38:11;3.25;;;1.47;;
21281;SDS011;10800;53.096;18.328;2023-06-10T16:43:16;2.45;;;1.20;;
21281;SDS011;10800;53.096;18.328;2023-06-10T16:48:21;3.10;;;1.20;;
21281;SDS011;10800;53.096;18.328;2023-06-10T16:53:27;1.98;;;1.17;;
21281;SDS011;10800;53.096;18.328;2023-06-10T16:58:32;2.00;;;0.85;;
21281;SDS011;10800;53.096;18.328;2023-06-10T17:03:38;5.12;;;1.27;;
21281;SDS011;10800;53.096;18.328;2023-06-10T17:08:44;2.62;;;1.10;;
21281;SDS011;10800;53.096;18.328;2023-06-10T17:13:49;3.17;;;0.95;;
21281;SDS011;10800;53.096;18.328;2023-06-10T17:18:55;1.80;;;1.07;;
21281;SDS011;10800;53.096;18.328;2023-06-10T17:24:01;4.47;;;1.17;;
21281;SDS011;10800;53.096;18.328;2023-06-10T17:29:07;3.72;;;1.00;;
21281;SDS011;10800;53.096;18.328;2023-06-10T17:34:12;4.15;;;0.72;;
21281;SDS011;10800;53.096;18.328;2023-06-10T17:39:18;2.83;;;1.32;;
21281;SDS011;10800;53.096;18.328;2023-06-10T17:44:23;8.63;;;1.57;;
21281;SDS011;10800;53.096;18.328;2023-06-10T17:49:30;1.98;;;0.85;;
21281;SDS011;10800;53.096;18.328;2023-06-10T17:54:37;1.42;;;1.00;;
21281;SDS011;10800;53.096;18.328;2023-06-10T17:59:42;1.67;;;1.00;;
21281;SDS011;10800;53.096;18.328;2023-06-10T18:04:48;9.03;;;2.45;;
21281;SDS011;10800;53.096;18.328;2023-06-10T18:09:53;2.77;;;1.17;;
21281;SDS011;10800;53.096;18.328;2023-06-10T18:14:58;8.43;;;0.95;;
21281;SDS011;10800;53.096;18.328;2023-06-10T18:20:04;3.67;;;1.52;;
21281;SDS011;10800;53.096;18.328;2023-06-10T18:25:11;1.50;;;1.00;;
21281;SDS011;10800;53.096;18.328;2023-06-10T18:30:16;6.72;;;1.65;;
21281;SDS011;10800;53.096;18.328;2023-06-10T18:35:22;3.58;;;1.10;;
21281;SDS011;10800;53.096;18.328;2023-06-10T18:40:27;4.08;;;1.00;;
21281;SDS011;10800;53.096;18.328;2023-06-10T18:45:33;1.55;;;1.00;;
21281;SDS011;10800;53.096;18.328;2023-06-10T18:50:38;5.73;;;1.10;;
21281;SDS011;10800;53.096;18.328;2023-06-10T18:55:44;3.10;;;1.00;;
21281;SDS011;10800;53.096;18.328;2023-06-10T19:00:56;1.33;;;1.10;;
21281;SDS011;10800;53.096;18.328;2023-06-10T19:06:01;1.63;;;1.17;;
21281;SDS011;10800;53.096;18.328;2023-06-10T19:11:07;4.28;;;1.82;;
21281;SDS011;10800;53.096;18.328;2023-06-10T19:16:13;3.40;;;1.37;;
21281;SDS011;10800;53.096;18.328;2023-06-10T19:21:18;5.63;;;1.03;;
21281;SDS011;10800;53.096;18.328;2023-06-10T19:26:24;1.53;;;1.07;;
21281;SDS011;10800;53.096;18.328;2023-06-10T19:31:30;3.40;;;1.40;;
21281;SDS011;10800;53.096;18.328;2023-06-10T19:36:36;0.97;;;0.73;;
21281;SDS011;10800;53.096;18.328;2023-06-10T19:41:41;4.43;;;1.23;;
21281;SDS011;10800;53.096;18.328;2023-06-10T19:46:46;1.20;;;1.03;;
21281;SDS011;10800;53.096;18.328;2023-06-10T19:51:52;12.10;;;2.73;;
21281;SDS011;10800;53.096;18.328;2023-06-10T19:56:58;2.10;;;1.47;;
21281;SDS011;10800;53.096;18.328;2023-06-10T20:02:05;0.73;;;0.70;;
21281;SDS011;10800;53.096;18.328;2023-06-10T20:07:11;1.87;;;1.20;;
21281;SDS011;10800;53.096;18.328;2023-06-10T20:12:16;3.07;;;1.30;;
21281;SDS011;10800;53.096;18.328;2023-06-10T20:17:22;3.87;;;1.30;;
21281;SDS011;10800;53.096;18.328;2023-06-10T20:22:27;2.80;;;1.63;;
21281;SDS011;10800;53.096;18.328;2023-06-10T20:27:33;4.00;;;1.20;;
21281;SDS011;10800;53.096;18.328;2023-06-10T20:32:38;3.73;;;1.27;;
21281;SDS011;10800;53.096;18.328;2023-06-10T20:37:50;4.73;;;1.40;;
21281;SDS011;10800;53.096;18.328;2023-06-10T20:42:56;2.13;;;1.47;;
21281;SDS011;10800;53.096;18.328;2023-06-10T20:48:03;7.37;;;1.80;;
21281;SDS011;10800;53.096;18.328;2023-06-10T20:53:09;6.83;;;1.70;;
21281;SDS011;10800;53.096;18.328;2023-06-10T20:58:14;9.73;;;0.90;;
21281;SDS011;10800;53.096;18.328;2023-06-10T21:03:20;2.60;;;1.13;;
21281;SDS011;10800;53.096;18.328;2023-06-10T21:08:25;5.83;;;1.40;;
21281;SDS011;10800;53.096;18.328;2023-06-10T21:13:31;7.07;;;1.33;;
21281;SDS011;10800;53.096;18.328;2023-06-10T21:18:37;3.07;;;1.83;;
21281;SDS011;10800;53.096;18.328;2023-06-10T21:23:42;5.93;;;1.23;;
21281;SDS011;10800;53.096;18.328;2023-06-10T21:28:48;2.63;;;1.40;;
21281;SDS011;10800;53.096;18.328;2023-06-10T21:33:54;2.13;;;1.07;;
21281;SDS011;10800;53.096;18.328;2023-06-10T21:38:59;1.83;;;1.20;;
21281;SDS011;10800;53.096;18.328;2023-06-10T21:44:04;2.63;;;1.10;;
21281;SDS011;10800;53.096;18.328;2023-06-10T21:49:10;1.70;;;1.10;;
21281;SDS011;10800;53.096;18.328;2023-06-10T21:54:16;2.50;;;1.37;;
21281;SDS011;10800;53.096;18.328;2023-06-10T21:59:21;4.97;;;1.00;;
21281;SDS011;10800;53.096;18.328;2023-06-10T22:04:27;3.33;;;1.33;;
21281;SDS011;10800;53.096;18.328;2023-06-10T22:09:32;2.43;;;1.20;;
21281;SDS011;10800;53.096;18.328;2023-06-10T22:14:38;1.10;;;0.97;;
21281;SDS011;10800;53.096;18.328;2023-06-10T22:19:44;3.10;;;1.47;;
21281;SDS011;10800;53.096;18.328;2023-06-10T22:24:55;3.03;;;0.97;;
21281;SDS011;10800;53.096;18.328;2023-06-10T22:30:01;1.53;;;1.13;;
21281;SDS011;10800;53.096;18.328;2023-06-10T22:35:09;2.17;;;1.33;;
21281;SDS011;10800;53.096;18.328;2023-06-10T22:40:15;3.87;;;0.97;;
21281;SDS011;10800;53.096;18.328;2023-06-10T22:45:21;1.50;;;0.90;;
21281;SDS011;10800;53.096;18.328;2023-06-10T22:50:27;1.53;;;1.10;;
21281;SDS011;10800;53.096;18.328;2023-06-10T22:55:33;3.53;;;1.20;;
21281;SDS011;10800;53.096;18.328;2023-06-10T23:00:38;2.13;;;1.13;;
21281;SDS011;10800;53.096;18.328;2023-06-10T23:05:44;2.53;;;1.67;;
21281;SDS011;10800;53.096;18.328;2023-06-10T23:10:49;1.93;;;1.00;;
21281;SDS011;10800;53.096;18.328;2023-06-10T23:15:54;2.00;;;0.90;;
21281;SDS011;10800;53.096;18.328;2023-06-10T23:21:00;3.93;;;1.03;;
21281;SDS011;10800;53.096;18.328;2023-06-10T23:26:05;1.43;;;0.90;;
21281;SDS011;10800;53.096;18.328;2023-06-10T23:31:12;2.07;;;1.07;;
21281;SDS011;10800;53.096;18.328;2023-06-10T23:36:17;3.40;;;1.03;;
21281;SDS011;10800;53.096;18.328;2023-06-10T23:41:24;1.70;;;1.40;;
21281;SDS011;10800;53.096;18.328;2023-06-10T23:46:33;2.50;;;1.03;;
21281;SDS011;10800;53.096;18.328;2023-06-10T23:51:40;2.10;;;1.30;;
21281;SDS011;10800;53.096;18.328;2023-06-10T23:56:46;1.43;;;1.10;;
